Time;durP1;ratioP1;P1;durP2;ratioP2;P2;SDS_P1;SDS_P2;PMS_P1;PMS_P2;Temp;Humidity;BMP_temperature;BMP_pressure;BME280_temperature;BME280_humidity;BME280_pressure;Samples;Min_cycle;Max_cycle;Signal;HPM_P1;HPM_P2
2022/04/19 00:00:23;;;;;;;;;13.33;11.33;;;;;15.02;52.79;101053.41;5059224;28;45511;-68
2022/04/19 00:02:49;;;;;;;;;10.33;9.00;;;;;15.01;52.71;101059.72;5048386;28;45509;-69
2022/04/19 00:05:14;;;;;;;;;13.33;11.00;;;;;15.01;53.23;101066.91;5038879;28;46658;-70
2022/04/19 00:07:41;;;;;;;;;12.67;11.33;;;;;14.87;52.49;101042.47;5020957;28;45353;-68
2022/04/19 00:10:07;;;;;;;;;8.67;8.67;;;;;14.96;52.22;101055.88;5039082;28;45258;-69
2022/04/19 00:12:33;;;;;;;;;9.00;9.00;;;;;14.57;51.98;100995.75;5048332;28;45331;-69
2022/04/19 00:14:58;;;;;;;;;7.00;4.00;;;;;14.85;51.67;101057.88;5058491;28;45405;-71
2022/04/19 00:17:24;;;;;;;;;11.00;8.33;;;;;14.88;51.24;101056.72;5048580;28;45200;-71
2022/04/19 00:19:50;;;;;;;;;7.00;7.00;;;;;14.75;51.47;101051.81;5059056;28;45321;-70
2022/04/19 00:22:17;;;;;;;;;6.67;6.67;;;;;14.76;51.09;101063.34;5049644;28;48398;-69
2022/04/19 00:24:43;;;;;;;;;7.00;5.33;;;;;14.71;51.42;101052.31;5037336;28;45564;-71
2022/04/19 00:27:08;;;;;;;;;9.00;7.67;;;;;14.74;51.23;101055.50;5038665;28;45261;-70
2022/04/19 00:29:33;;;;;;;;;9.67;8.33;;;;;14.44;51.32;101003.41;5038759;28;45391;-69
2022/04/19 00:31:59;;;;;;;;;10.33;9.67;;;;;14.75;51.24;101059.84;5038858;28;46158;-70
2022/04/19 00:34:24;;;;;;;;;8.00;8.00;;;;;14.63;50.86;101044.28;5038565;28;45326;-69
2022/04/19 00:36:49;;;;;;;;;6.33;5.33;;;;;14.72;50.89;101062.00;5044279;28;45412;-70
2022/04/19 00:39:15;;;;;;;;;6.67;5.67;;;;;14.68;51.05;101058.84;5058767;28;45178;-70
2022/04/19 00:41:40;;;;;;;;;8.67;7.67;;;;;14.66;50.85;101044.78;5058280;28;46545;-69
2022/04/19 00:44:07;;;;;;;;;10.33;10.00;;;;;14.68;51.29;101041.94;5057989;28;45268;-69
2022/04/19 00:46:36;;;;;;;;;7.00;6.67;;;;;14.70;50.84;101046.13;5056438;28;45318;-70
2022/04/19 00:49:01;;;;;;;;;9.33;7.33;;;;;14.71;50.84;101047.78;5057901;28;45435;-68
2022/04/19 00:51:27;;;;;;;;;7.67;7.67;;;;;14.69;50.91;101038.25;5053713;28;45390;-71
2022/04/19 00:53:54;;;;;;;;;5.67;5.67;;;;;14.68;50.66;101037.41;5038094;28;45689;-70
2022/04/19 00:56:19;;;;;;;;;9.33;7.67;;;;;14.72;50.30;101048.63;5038281;28;45317;-68
2022/04/19 00:58:45;;;;;;;;;8.67;8.67;;;;;14.75;50.31;101054.50;5038135;28;45447;-68
2022/04/19 01:01:10;;;;;;;;;5.33;3.67;;;;;14.66;50.38;101036.75;5037924;28;45694;-69
2022/04/19 01:03:37;;;;;;;;;8.67;7.33;;;;;14.55;50.22;101032.53;5020034;28;45689;-70
2022/04/19 01:06:04;;;;;;;;;8.00;6.00;;;;;14.50;50.62;101031.34;5038049;28;45671;-69
2022/04/19 01:08:30;;;;;;;;;6.33;6.33;;;;;14.55;50.46;101039.72;5020256;28;45324;-69
2022/04/19 01:13:17;;;;;;;;;8.00;7.67;;;;;14.46;50.61;101038.88;5019643;28;47950;-70
2022/04/19 01:13:42;;;;;;;;;8.00;8.00;;;;;14.30;50.65;101018.22;5037580;28;45460;-70
2022/04/19 01:16:08;;;;;;;;;6.67;6.67;;;;;14.10;50.44;100968.66;5036575;28;45262;-70
2022/04/19 01:18:35;;;;;;;;;8.00;8.00;;;;;14.49;49.95;101043.88;5052558;28;45459;-70
2022/04/19 01:21:01;;;;;;;;;8.33;8.33;;;;;14.37;50.19;101018.38;5070487;28;48355;-70
2022/04/19 01:23:26;;;;;;;;;8.67;6.33;;;;;14.43;49.96;101038.31;5057374;28;45240;-69
2022/04/19 01:25:52;;;;;;;;;6.67;6.67;;;;;14.35;49.80;101043.63;5057862;28;45439;-69
2022/04/19 01:28:19;;;;;;;;;9.67;6.33;;;;;14.16;49.64;101021.47;5056636;28;45281;-70
2022/04/19 01:30:52;;;;;;;;;6.00;5.00;;;;;14.25;49.17;101044.59;5056210;28;48514;-69
2022/04/19 01:33:18;;;;;;;;;3.67;3.67;;;;;14.28;48.81;101040.75;5055711;28;45205;-70
2022/04/19 01:35:44;;;;;;;;;8.00;6.67;;;;;14.15;49.62;101043.88;5039311;28;45322;-69
2022/04/19 01:38:09;;;;;;;;;4.33;3.33;;;;;14.22;49.11;101034.22;5056361;28;45495;-67
2022/04/19 01:40:34;;;;;;;;;4.67;4.67;;;;;14.19;49.28;101015.81;5057650;28;45421;-70
2022/04/19 01:43:02;;;;;;;;;5.00;5.00;;;;;14.04;49.40;101001.41;5057525;28;45453;-69
2022/04/19 01:45:31;;;;;;;;;5.67;5.67;;;;;14.14;49.63;101033.34;5057618;28;45455;-69
2022/04/19 01:47:57;;;;;;;;;9.67;7.00;;;;;14.15;49.66;101025.16;5045852;28;45305;-69
2022/04/19 01:50:28;;;;;;;;;11.00;8.33;;;;;13.80;49.52;100966.50;5055330;28;45559;-69
2022/04/19 01:52:55;;;;;;;;;8.00;7.67;;;;;14.21;49.91;101021.81;5048618;28;45509;-69
2022/04/19 01:55:21;;;;;;;;;9.00;7.67;;;;;14.30;49.44;101023.56;5057307;28;45365;-69
2022/04/19 01:57:52;;;;;;;;;8.33;7.67;;;;;14.28;49.52;101033.59;5039158;28;45335;-70
2022/04/19 02:00:18;;;;;;;;;7.67;7.67;;;;;14.24;49.12;101034.06;5037366;28;46164;-69
2022/04/19 02:02:45;;;;;;;;;9.50;7.50;;;;;14.20;49.59;101035.38;5057036;28;45315;-70
2022/04/19 02:05:11;;;;;;;;;6.33;5.33;;;;;14.21;49.51;101032.53;5055798;28;45323;-70
2022/04/19 02:07:54;;;;;;;;;8.33;8.33;;;;;14.20;48.98;101033.53;5057287;28;45473;-70
2022/04/19 02:10:20;;;;;;;;;8.00;8.00;;;;;14.09;48.01;101031.16;5057112;28;45755;-69
2022/04/19 02:12:46;;;;;;;;;7.67;7.67;;;;;14.03;49.25;101026.44;5055421;28;45486;-69
2022/04/19 02:15:14;;;;;;;;;8.33;7.33;;;;;14.01;49.15;101007.03;5050873;28;45532;-69
2022/04/19 02:17:47;;;;;;;;;8.33;6.33;;;;;13.90;49.49;101016.19;5039139;28;45179;-69
2022/04/19 02:20:14;;;;;;;;;7.00;7.00;;;;;14.06;49.33;101031.47;5056538;28;46300;-69
2022/04/19 02:22:41;;;;;;;;;8.33;6.33;;;;;13.99;49.00;101019.72;5056072;28;45408;-70
2022/04/19 02:25:07;;;;;;;;;7.67;7.67;;;;;14.00;48.63;101022.22;5057028;28;45450;-69
2022/04/19 02:27:33;;;;;;;;;7.67;7.67;;;;;13.68;48.90;100956.09;5056871;28;45327;-69
2022/04/19 02:30:05;;;;;;;;;8.33;8.33;;;;;13.99;48.40;101022.41;5056785;28;46506;-69
2022/04/19 02:32:31;;;;;;;;;8.00;8.00;;;;;13.86;48.37;101003.31;5058048;28;45269;-69
2022/04/19 02:34:57;;;;;;;;;12.00;10.00;;;;;13.82;48.48;101007.31;5056903;28;45311;-70
2022/04/19 02:37:23;;;;;;;;;8.67;7.67;;;;;13.73;48.96;101018.91;5039356;28;45566;-69
2022/04/19 02:39:49;;;;;;;;;7.33;7.33;;;;;13.74;48.63;101029.44;5036630;28;46407;-68
2022/04/19 02:42:15;;;;;;;;;4.67;4.67;;;;;13.59;48.21;100991.78;5036529;28;45412;-69
2022/04/19 02:44:41;;;;;;;;;7.00;6.00;;;;;13.67;48.25;101023.91;5036450;28;45277;-69
2022/04/19 02:47:06;;;;;;;;;6.33;4.67;;;;;13.12;48.47;100926.34;5018604;28;45577;-69
2022/04/19 02:49:33;;;;;;;;;5.67;5.67;;;;;13.58;48.09;101003.44;5056026;28;46526;-69
2022/04/19 02:51:58;;;;;;;;;6.67;6.67;;;;;13.74;47.97;101029.44;5055920;28;45422;-68
2022/04/19 02:54:23;;;;;;;;;7.33;5.67;;;;;13.65;47.87;101007.19;5038591;28;46819;-70
2022/04/19 02:56:49;;;;;;;;;6.67;4.67;;;;;13.78;48.16;101027.28;5057080;28;45232;-69
2022/04/19 02:59:14;;;;;;;;;5.33;5.33;;;;;13.49;48.23;100985.72;5056455;28;46214;-69
2022/04/19 03:01:40;;;;;;;;;9.00;6.00;;;;;13.74;47.95;101028.59;5056288;28;45449;-68
2022/04/19 03:04:05;;;;;;;;;5.67;5.33;;;;;13.66;48.39;101014.22;5055376;28;45472;-68
2022/04/19 03:06:31;;;;;;;;;4.33;3.33;;;;;13.69;47.49;101021.91;5041304;28;45561;-68
2022/04/19 03:08:57;;;;;;;;;5.33;5.33;;;;;13.53;47.12;101008.44;5036685;28;48322;-71
2022/04/19 03:11:22;;;;;;;;;4.00;4.00;;;;;13.53;47.02;101018.28;5038579;28;46037;-69
2022/04/19 03:13:47;;;;;;;;;5.00;5.00;;;;;13.34;47.02;100997.94;5039790;28;45308;-68
2022/04/19 03:16:14;;;;;;;;;5.00;4.33;;;;;13.41;47.24;101015.00;5021773;28;45435;-69
2022/04/19 03:18:43;;;;;;;;;4.67;3.67;;;;;13.31;47.23;101012.47;5051405;28;45788;-69
2022/04/19 03:21:10;;;;;;;;;4.00;4.00;;;;;13.19;47.88;101007.50;5029763;28;45310;-69
2022/04/19 03:29:04;;;;;;;;;7.33;5.00;;;;;12.62;48.16;100938.44;5039210;28;45486;-69
2022/04/19 03:31:29;;;;;;;;;5.67;5.00;;;;;13.08;48.31;101000.56;5021450;28;46427;-69
2022/04/19 03:33:54;;;;;;;;;6.00;4.33;;;;;12.53;48.05;100922.50;5039588;28;45454;-69
2022/04/19 03:36:20;;;;;;;;;4.00;4.00;;;;;13.01;48.41;100997.69;5057560;28;45539;-69
2022/04/19 03:38:46;;;;;;;;;7.00;5.00;;;;;13.13;47.93;101000.94;5057863;28;47340;-70
2022/04/19 03:41:12;;;;;;;;;4.67;4.67;;;;;13.17;47.69;100996.13;5057506;28;45482;-68
2022/04/19 03:43:38;;;;;;;;;7.00;4.00;;;;;13.15;47.62;100990.09;5059706;28;45404;-67
2022/04/19 03:46:04;;;;;;;;;4.00;4.00;;;;;13.25;47.60;100998.91;5041405;28;45638;-70
2022/04/19 03:48:29;;;;;;;;;5.00;5.00;;;;;13.20;47.26;101001.16;5046777;28;47919;-69
2022/04/19 03:50:55;;;;;;;;;5.67;5.67;;;;;13.21;47.47;100986.81;5021056;28;45283;-69
2022/04/19 03:53:20;;;;;;;;;4.00;4.00;;;;;13.08;47.47;100966.69;5025797;28;45297;-70
2022/04/19 03:55:46;;;;;;;;;8.00;4.00;;;;;13.23;47.35;100995.53;5057979;28;45438;-68
2022/04/19 03:58:11;;;;;;;;;3.00;3.00;;;;;13.12;47.48;100990.41;5058919;28;45593;-70
2022/04/19 04:00:37;;;;;;;;;7.00;4.00;;;;;13.17;47.84;100993.44;5059021;28;45361;-69
2022/04/19 04:03:06;;;;;;;;;8.33;5.33;;;;;13.13;47.61;100981.41;5048201;28;45440;-68
2022/04/19 04:05:32;;;;;;;;;6.00;4.67;;;;;13.15;47.69;100980.25;5039136;28;45245;-70
2022/04/19 04:07:58;;;;;;;;;7.00;4.33;;;;;13.14;47.53;100977.72;5038449;28;45754;-69
2022/04/19 04:10:24;;;;;;;;;8.33;5.67;;;;;13.18;48.18;100990.66;5043798;28;45384;-69
2022/04/19 04:12:50;;;;;;;;;5.33;4.00;;;;;13.23;47.70;100996.38;5058739;28;45389;-69
2022/04/19 04:15:16;;;;;;;;;5.33;4.00;;;;;13.03;48.44;100963.66;5057490;28;45466;-69
2022/04/19 04:17:41;;;;;;;;;4.00;4.00;;;;;12.81;48.08;100916.06;5058606;28;45615;-69
2022/04/19 04:20:07;;;;;;;;;5.67;3.67;;;;;13.02;48.93;100956.66;5057212;28;45310;-69
2022/04/19 04:22:33;;;;;;;;;5.33;5.33;;;;;13.27;48.38;100999.56;5058505;28;45290;-69
2022/04/19 04:24:58;;;;;;;;;3.00;3.00;;;;;13.19;48.89;100978.97;5045016;28;45451;-69
2022/04/19 04:27:24;;;;;;;;;5.00;4.00;;;;;13.22;48.63;100989.38;5038049;28;45209;-71
2022/04/19 04:29:49;;;;;;;;;6.67;5.00;;;;;13.23;48.62;100998.22;5038283;28;45557;-68
2022/04/19 04:32:15;;;;;;;;;4.00;4.00;;;;;13.20;48.87;100996.66;5038147;28;45529;-68
2022/04/19 04:34:40;;;;;;;;;9.67;5.67;;;;;13.23;49.05;100990.22;5038974;28;45476;-69
2022/04/19 04:37:06;;;;;;;;;4.33;4.33;;;;;13.23;49.24;100987.53;5036681;28;48360;-69
2022/04/19 04:39:31;;;;;;;;;8.33;4.00;;;;;13.12;49.44;100977.91;5038189;28;45214;-69
2022/04/19 04:41:57;;;;;;;;;4.67;4.33;;;;;13.20;49.28;100998.50;5056616;28;45411;-69
2022/04/19 04:44:22;;;;;;;;;4.00;4.00;;;;;12.75;49.00;100943.38;5056606;28;45451;-69
2022/04/19 04:49:39;;;;;;;;;5.33;4.33;;;;;13.07;49.33;100985.53;5058116;28;45534;-68
2022/04/19 04:52:09;;;;;;;;;3.00;3.00;;;;;13.20;49.36;100998.50;5058009;28;45521;-69
2022/04/19 04:54:35;;;;;;;;;4.00;3.67;;;;;13.24;49.86;101008.75;5056647;28;45467;-68
2022/04/19 04:57:02;;;;;;;;;6.67;6.67;;;;;13.16;49.98;100994.44;5057875;28;45837;-69
2022/04/19 04:59:29;;;;;;;;;4.33;4.33;;;;;13.13;49.71;100990.25;5042204;28;45450;-70
2022/04/19 05:01:55;;;;;;;;;7.00;4.67;;;;;13.29;50.24;101010.94;5019882;28;45965;-68
2022/04/19 05:04:20;;;;;;;;;5.67;4.00;;;;;13.09;49.91;100984.38;5036772;28;45475;-69
2022/04/19 05:06:45;;;;;;;;;6.00;6.00;;;;;13.21;50.25;101019.69;5037623;28;46332;-69
2022/04/19 05:09:11;;;;;;;;;5.00;5.00;;;;;12.96;50.64;100981.25;5036226;28;45424;-68
2022/04/19 05:11:36;;;;;;;;;7.33;4.00;;;;;13.25;50.21;101014.91;5058308;28;45417;-69
2022/04/19 05:14:02;;;;;;;;;5.00;3.33;;;;;13.08;51.21;101006.72;5037748;28;45463;-70
2022/04/19 05:16:27;;;;;;;;;4.67;4.67;;;;;12.75;51.40;100948.72;5037523;28;46108;-70
2022/04/19 05:18:53;;;;;;;;;5.00;3.00;;;;;13.18;51.51;101021.84;5037636;28;45443;-69
2022/04/19 05:21:18;;;;;;;;;6.33;5.00;;;;;13.10;51.71;101017.25;5043313;28;45380;-70
2022/04/19 05:23:43;;;;;;;;;5.33;4.00;;;;;13.05;52.39;101020.38;5057428;28;45393;-71
2022/04/19 05:26:09;;;;;;;;;6.00;5.00;;;;;13.07;52.22;101017.56;5056836;28;45649;-70
2022/04/19 05:28:34;;;;;;;;;4.67;4.67;;;;;12.49;52.60;100932.66;5056228;28;45315;-70
2022/04/19 05:31:00;;;;;;;;;6.00;4.00;;;;;12.96;53.05;101026.63;5057003;28;45312;-70
2022/04/19 05:33:25;;;;;;;;;7.00;5.00;;;;;12.93;52.85;101024.28;5057459;28;45249;-70
2022/04/19 05:35:51;;;;;;;;;4.00;4.00;;;;;13.02;52.85;101026.03;5049453;28;45739;-69
2022/04/19 05:38:17;;;;;;;;;5.00;4.00;;;;;12.87;53.07;100995.53;5040146;28;45685;-69
2022/04/19 05:40:42;;;;;;;;;6.00;4.67;;;;;13.01;53.17;101011.03;5045265;28;45483;-69
2022/04/19 05:43:08;;;;;;;;;2.00;0.67;;;;;13.07;52.88;101010.41;5057285;28;45436;-71
2022/04/19 05:45:34;;;;;;;;;5.00;4.00;;;;;13.04;52.79;100994.69;5038989;28;47486;-69
2022/04/19 05:48:00;;;;;;;;;4.00;4.00;;;;;13.12;53.43;101027.78;5053778;28;45605;-70
2022/04/19 05:50:26;;;;;;;;;7.00;3.67;;;;;13.04;54.12;101025.88;5055363;28;45448;-69
2022/04/19 05:52:51;;;;;;;;;3.00;3.00;;;;;12.95;53.96;100994.75;5057106;28;45356;-70
2022/04/19 05:55:17;;;;;;;;;6.00;5.00;;;;;13.17;53.90;101023.66;5039198;28;47552;-71
2022/04/19 05:57:43;;;;;;;;;7.67;6.67;;;;;13.19;53.67;101020.84;5038465;28;45437;-69
2022/04/19 06:00:08;;;;;;;;;5.00;5.00;;;;;13.19;53.81;101004.84;5057178;28;45534;-69
2022/04/19 06:05:18;;;;;;;;;9.33;6.00;;;;;13.12;53.01;100947.69;5044981;28;45570;-68
2022/04/19 06:07:45;;;;;;;;;8.67;6.33;;;;;13.65;53.03;101028.56;5055327;28;45401;-70
2022/04/19 06:10:10;;;;;;;;;7.33;7.33;;;;;13.78;52.89;101024.63;5054152;28;45502;-68
2022/04/19 06:12:36;;;;;;;;;6.00;5.67;;;;;13.82;52.59;101018.00;5053156;28;45301;-68
2022/04/19 06:15:01;;;;;;;;;8.00;6.00;;;;;13.83;53.05;101025.00;5051683;28;45746;-70
2022/04/19 06:17:32;;;;;;;;;7.67;6.00;;;;;13.63;52.44;100981.63;5049315;28;45388;-68
2022/04/19 06:20:01;;;;;;;;;8.67;6.00;;;;;13.98;52.27;101023.41;5019262;28;45439;-71
2022/04/19 06:22:27;;;;;;;;;5.67;5.67;;;;;14.00;52.93;101022.22;5019161;28;45301;-74
2022/04/19 06:24:54;;;;;;;;;8.33;7.00;;;;;13.98;52.80;101020.72;5035168;28;48130;-70
2022/04/19 06:27:19;;;;;;;;;6.00;6.00;;;;;14.05;52.58;101029.81;5036136;28;45400;-70
2022/04/19 06:29:44;;;;;;;;;5.67;4.00;;;;;14.12;52.52;101014.78;5036526;28;45971;-69
2022/04/19 06:32:11;;;;;;;;;7.33;4.67;;;;;14.51;51.76;101027.66;5036477;28;45256;-69
2022/04/19 06:34:36;;;;;;;;;5.33;5.33;;;;;14.79;51.30;101018.38;5035990;28;45995;-69
2022/04/19 06:37:02;;;;;;;;;7.67;7.67;;;;;15.06;50.23;101014.56;5036120;28;45432;-69
2022/04/19 06:39:28;;;;;;;;;7.00;7.00;;;;;15.36;49.57;101007.69;5052389;28;45364;-69
2022/04/19 06:41:57;;;;;;;;;9.67;7.00;;;;;15.78;48.68;101014.69;5056974;28;45552;-69
2022/04/19 06:44:22;;;;;;;;;10.33;8.67;;;;;16.22;47.40;101011.53;5058573;28;46427;-68
2022/04/19 06:46:49;;;;;;;;;9.33;8.00;;;;;16.19;46.39;100959.06;5059009;28;45322;-69
2022/04/19 06:49:15;;;;;;;;;7.00;6.33;;;;;16.75;45.70;101008.09;5058806;28;45382;-68
2022/04/19 06:51:41;;;;;;;;;8.00;8.00;;;;;17.04;45.60;101007.41;5035969;28;45495;-69
2022/04/19 06:54:08;;;;;;;;;10.67;8.67;;;;;17.36;44.95;101016.19;5039284;28;47278;-71
2022/04/19 06:56:34;;;;;;;;;10.67;9.00;;;;;17.67;44.09;101014.22;5039341;28;45531;-68
2022/04/19 06:59:00;;;;;;;;;8.00;6.33;;;;;17.77;42.88;101009.44;5047402;28;45492;-71
2022/04/19 07:01:26;;;;;;;;;8.67;6.33;;;;;17.82;42.59;100996.28;5059786;28;45519;-71
2022/04/19 07:03:52;;;;;;;;;13.00;9.00;;;;;17.67;41.98;100948.84;5058321;28;46708;-70
2022/04/19 07:06:17;;;;;;;;;9.00;6.67;;;;;18.36;41.99;101013.94;5059442;28;45478;-70
2022/04/19 07:08:43;;;;;;;;;10.00;10.00;;;;;18.63;41.64;101007.06;5058811;28;45529;-69
2022/04/19 07:11:08;;;;;;;;;8.67;8.67;;;;;18.67;40.81;100951.81;5059444;28;45461;-69
2022/04/19 07:13:34;;;;;;;;;12.00;8.67;;;;;19.30;40.24;101006.69;5058381;28;47955;-71
2022/04/19 07:16:00;;;;;;;;;8.67;7.33;;;;;19.64;39.27;101006.78;5059813;28;45435;-70
2022/04/19 07:18:35;;;;;;;;;14.00;10.00;;;;;19.52;38.75;100940.91;5055575;28;45575;-74
2022/04/19 07:26:38;;;;;;;;;10.00;10.00;;;;;20.75;36.50;101010.22;5044716;28;45383;-70
2022/04/19 07:29:21;;;;;;;;;16.33;9.33;;;;;20.89;36.01;101009.22;5044256;28;45225;-71
2022/04/19 07:31:49;;;;;;;;;10.33;9.00;;;;;20.91;36.20;101000.91;5057924;28;45249;-69
2022/04/19 07:34:14;;;;;;;;;11.67;10.67;;;;;21.10;36.04;100999.28;5056664;28;45717;-69
2022/04/19 07:36:44;;;;;;;;;9.67;9.00;;;;;21.28;35.48;101006.81;5040787;28;46234;-69
2022/04/19 07:39:13;;;;;;;;;9.33;9.33;;;;;21.52;35.35;100998.91;5058780;28;45450;-71
2022/04/19 07:41:40;;;;;;;;;8.00;6.67;;;;;21.75;33.91;101003.03;5055363;28;45545;-70
2022/04/19 07:44:08;;;;;;;;;10.00;9.33;;;;;21.75;33.52;100989.50;5037313;28;47259;-70
2022/04/19 07:46:35;;;;;;;;;11.33;9.67;;;;;21.94;33.86;100996.72;5037870;28;45540;-70
2022/04/19 07:49:01;;;;;;;;;13.67;11.67;;;;;22.11;33.78;101002.56;5055020;28;45490;-71
2022/04/19 07:51:26;;;;;;;;;11.33;8.33;;;;;22.34;33.44;100999.34;5054568;28;45408;-69
2022/04/19 07:53:55;;;;;;;;;19.67;13.33;;;;;22.63;32.83;100996.06;5055939;28;45332;-69
2022/04/19 07:56:21;;;;;;;;;12.67;11.00;;;;;22.63;32.28;100984.41;5038647;28;45514;-68
2022/04/19 07:58:49;;;;;;;;;20.67;18.33;;;;;22.65;31.99;100985.84;5057092;28;45484;-70
2022/04/19 08:01:16;;;;;;;;;18.33;14.33;;;;;22.55;31.96;100930.44;5058397;28;45335;-70
2022/04/19 08:03:42;;;;;;;;;11.00;11.00;;;;;23.09;31.36;100984.13;5039169;28;46766;-71
2022/04/19 08:06:14;;;;;;;;;13.67;11.67;;;;;23.25;30.65;100994.44;5049048;28;45425;-71
2022/04/19 08:08:43;;;;;;;;;12.00;7.33;;;;;23.05;30.41;100940.34;5038868;28;45509;-70
2022/04/19 08:11:08;;;;;;;;;11.67;11.67;;;;;23.21;30.23;100963.34;5058025;28;45531;-72
2022/04/19 08:13:34;;;;;;;;;10.00;9.67;;;;;23.41;30.60;100992.19;5057261;28;45482;-72
2022/04/19 08:16:00;;;;;;;;;12.33;10.67;;;;;23.36;30.03;100990.97;5056864;28;45281;-71
2022/04/19 08:18:26;;;;;;;;;10.67;9.67;;;;;23.21;30.24;100986.94;5058412;28;45539;-72
2022/04/19 08:20:51;;;;;;;;;9.33;9.33;;;;;23.13;29.88;100987.22;5057581;28;45427;-72
2022/04/19 08:23:20;;;;;;;;;10.67;8.67;;;;;23.16;29.96;100973.22;5058200;28;46068;-71
2022/04/19 08:25:45;;;;;;;;;10.00;10.00;;;;;23.43;29.44;100993.66;5057295;28;45353;-71
2022/04/19 08:28:11;;;;;;;;;11.67;9.67;;;;;23.50;29.19;100991.69;5051625;28;45518;-73
2022/04/19 08:30:36;;;;;;;;;11.00;11.00;;;;;23.50;28.85;100974.59;5036520;28;45466;-71
2022/04/19 08:33:02;;;;;;;;;12.67;10.33;;;;;23.55;28.74;100969.31;5053178;28;47915;-71
2022/04/19 08:35:31;;;;;;;;;8.00;8.00;;;;;23.65;28.28;100978.66;5033037;28;45484;-71
2022/04/19 08:37:56;;;;;;;;;8.67;8.33;;;;;23.68;28.02;100958.34;5023469;28;45673;-71
2022/04/19 08:40:25;;;;;;;;;12.33;11.33;;;;;24.08;27.91;100990.50;5053127;28;45740;-70
2022/04/19 08:42:50;;;;;;;;;7.00;7.00;;;;;24.20;27.65;100975.09;5036156;28;47238;-72
2022/04/19 08:45:16;;;;;;;;;9.33;9.33;;;;;24.40;26.63;100986.56;5052627;28;45435;-72
2022/04/19 08:47:45;;;;;;;;;11.33;7.67;;;;;24.63;27.15;100976.84;5053166;28;45483;-70
2022/04/19 08:50:18;;;;;;;;;11.00;9.00;;;;;24.93;26.65;100980.38;5037345;28;45421;-72
2022/04/19 08:52:45;;;;;;;;;10.33;8.67;;;;;25.31;26.36;100974.56;5037409;28;45558;-70
2022/04/19 08:58:00;;;;;;;;;12.33;11.33;;;;;26.04;25.46;100971.34;5037001;28;45483;-73
2022/04/19 09:00:27;;;;;;;;;11.67;10.67;;;;;26.36;24.45;100973.63;5037716;28;45502;-71
2022/04/19 09:02:57;;;;;;;;;10.00;7.33;;;;;26.33;24.19;100966.75;5035845;28;47103;-73
2022/04/19 09:05:26;;;;;;;;;8.00;7.00;;;;;26.35;23.98;100956.44;5052544;28;45445;-74
2022/04/19 09:07:53;;;;;;;;;12.67;9.33;;;;;26.45;23.94;100944.94;5031504;28;45198;-72
2022/04/19 09:10:26;;;;;;;;;11.00;9.67;;;;;27.24;23.58;100966.78;5030208;28;45300;-71
2022/04/19 09:13:01;;;;;;;;;8.00;7.00;;;;;27.77;23.00;100958.03;5035943;28;46972;-71
2022/04/19 09:15:38;;;;;;;;;7.33;7.00;;;;;28.54;22.27;100956.25;5037045;28;45514;-69
2022/04/19 09:18:14;;;;;;;;;10.33;10.33;;;;;29.02;21.12;100919.75;5052808;28;45174;-72
2022/04/19 09:20:40;;;;;;;;;12.67;10.00;;;;;29.77;20.11;100965.19;5032312;28;45487;-71
2022/04/19 09:23:08;;;;;;;;;12.67;11.33;;;;;30.58;20.04;100956.47;5035195;28;47528;-71
2022/04/19 09:25:35;;;;;;;;;8.33;8.33;;;;;30.96;19.13;100921.38;5037409;28;45339;-70
2022/04/19 09:28:03;;;;;;;;;10.67;9.33;;;;;31.17;19.44;100918.38;5052793;28;45382;-71
2022/04/19 09:30:32;;;;;;;;;9.67;8.33;;;;;31.63;19.18;100956.75;5057534;28;45280;-71
2022/04/19 09:33:14;;;;;;;;;9.33;9.33;;;;;31.63;18.90;100942.19;5054905;28;47419;-71
2022/04/19 09:35:45;;;;;;;;;12.33;10.67;;;;;31.60;17.62;100954.56;5068843;28;45272;-71
2022/04/19 09:38:12;;;;;;;;;10.67;9.00;;;;;31.42;18.53;100941.41;5056812;28;45629;-70
2022/04/19 09:40:42;;;;;;;;;12.67;9.67;;;;;31.91;18.17;100940.75;5056008;28;45350;-72
2022/04/19 09:43:10;;;;;;;;;13.67;12.00;;;;;32.29;17.61;100930.97;5038218;28;47557;-69
2022/04/19 09:45:58;;;;;;;;;12.67;11.33;;;;;32.98;17.12;100939.00;5056911;28;45345;-71
2022/04/19 09:48:34;;;;;;;;;11.33;10.67;;;;;33.45;17.15;100923.72;5056392;28;45332;-69
2022/04/19 09:51:08;;;;;;;;;13.00;11.67;;;;;34.23;16.56;100943.72;5056498;28;45416;-71
2022/04/19 09:53:48;;;;;;;;;12.00;10.00;;;;;34.84;15.73;100940.91;5055846;28;45968;-71
2022/04/19 09:56:15;;;;;;;;;11.67;10.33;;;;;35.09;15.66;100923.09;5055967;28;45462;-71
2022/04/19 09:58:44;;;;;;;;;13.33;11.33;;;;;34.96;15.61;100912.81;5039124;28;45360;-72
2022/04/19 10:08:10;;;;;;;;;17.67;14.00;;;;;35.06;15.33;100932.00;5038904;28;45317;-73
2022/04/19 10:09:24;;;;;;;;;17.33;16.33;;;;;32.55;17.57;100913.16;5056738;28;45241;-74
2022/04/19 10:11:57;;;;;;;;;15.00;13.00;;;;;32.38;17.95;100910.81;5057098;28;45378;-68
2022/04/19 10:14:23;;;;;;;;;13.00;11.67;;;;;31.73;18.42;100893.53;5056195;28;46207;-69
2022/04/19 10:16:49;;;;;;;;;14.33;12.00;;;;;31.33;18.88;100888.97;5056477;28;45263;-69
2022/04/19 10:19:16;;;;;;;;;11.67;11.67;;;;;30.47;19.33;100908.16;5056434;28;45343;-69
2022/04/19 10:21:44;;;;;;;;;19.67;17.33;;;;;29.02;20.29;100884.16;5055731;28;45411;-70
2022/04/19 10:24:12;;;;;;;;;17.67;16.33;;;;;28.20;21.65;100890.75;5056259;28;46351;-71
2022/04/19 10:26:46;;;;;;;;;25.33;22.33;;;;;27.62;22.46;100905.06;5056138;28;45337;-71
2022/04/19 10:29:21;;;;;;;;;10.33;9.67;;;;;26.84;23.26;100888.63;5055986;28;45459;-71
2022/04/19 10:32:06;;;;;;;;;13.67;12.67;;;;;26.43;24.31;100899.88;5038575;28;45261;-70
2022/04/19 10:34:37;;;;;;;;;12.00;11.67;;;;;25.67;25.03;100889.13;5037994;28;47228;-72
2022/04/19 10:37:11;;;;;;;;;12.33;10.33;;;;;25.46;25.59;100903.31;5056342;28;45514;-71
2022/04/19 10:40:04;;;;;;;;;12.00;12.00;;;;;24.99;26.27;100911.47;5056318;28;46202;-71
2022/04/19 10:42:34;;;;;;;;;10.67;10.67;;;;;24.52;26.89;100886.88;5054931;28;45247;-73
2022/04/19 10:45:12;;;;;;;;;12.00;11.00;;;;;24.10;27.44;100871.59;5053563;28;46484;-72
2022/04/19 10:47:53;;;;;;;;;10.33;10.33;;;;;23.92;27.75;100892.28;5053633;28;45524;-69
2022/04/19 10:50:35;;;;;;;;;11.67;10.00;;;;;23.54;28.60;100900.63;5037780;28;45478;-71
2022/04/19 10:53:07;;;;;;;;;12.67;10.67;;;;;23.24;29.53;100873.41;5030766;28;45868;-70
2022/04/19 10:55:34;;;;;;;;;12.33;12.33;;;;;23.11;29.64;100897.94;5055680;28;45523;-71
2022/04/19 10:58:06;;;;;;;;;12.67;11.67;;;;;22.98;29.78;100879.06;5055061;28;45438;-71
2022/04/19 11:00:34;;;;;;;;;11.00;10.33;;;;;22.70;30.25;100880.31;5037806;28;45429;-71
2022/04/19 11:03:07;;;;;;;;;13.67;12.00;;;;;22.13;31.14;100887.56;5056081;28;45521;-71
2022/04/19 11:05:43;;;;;;;;;17.33;12.67;;;;;21.83;32.22;100891.84;5055148;28;45549;-70
2022/04/19 11:08:27;;;;;;;;;15.00;12.33;;;;;21.70;32.32;100889.19;5055918;28;45155;-70
2022/04/19 11:10:55;;;;;;;;;13.67;11.67;;;;;21.70;32.01;100881.88;5055303;28;45566;-70
2022/04/19 11:13:21;;;;;;;;;17.33;16.67;;;;;21.37;32.41;100819.75;5055764;28;45487;-71
2022/04/19 11:16:01;;;;;;;;;15.33;15.00;;;;;21.75;32.25;100873.13;5055614;28;45652;-69
2022/04/19 11:18:30;;;;;;;;;16.00;12.00;;;;;21.75;32.57;100859.59;5055257;28;45163;-71
2022/04/19 11:20:58;;;;;;;;;16.00;12.67;;;;;21.76;32.32;100872.06;5055157;28;45271;-70
2022/04/19 11:23:26;;;;;;;;;18.33;18.33;;;;;21.69;32.85;100863.16;5050572;28;45254;-70
2022/04/19 11:25:53;;;;;;;;;18.00;14.33;;;;;21.69;32.96;100857.75;5055431;28;46905;-71
2022/04/19 11:28:30;;;;;;;;;16.00;14.67;;;;;21.68;32.70;100872.31;5054607;28;45407;-71
2022/04/19 11:30:55;;;;;;;;;19.67;18.00;;;;;21.56;33.13;100872.97;5038526;28;45352;-71
2022/04/19 11:33:25;;;;;;;;;15.67;15.33;;;;;21.46;33.52;100869.91;5020566;28;45702;-71
2022/04/19 11:36:10;;;;;;;;;17.00;14.33;;;;;21.48;33.32;100873.22;5047977;28;45741;-69
2022/04/19 11:38:48;;;;;;;;;17.00;15.33;;;;;21.45;33.39;100857.41;5058155;28;45405;-74
2022/04/19 11:46:52;;;;;;;;;18.00;17.33;;;;;21.59;33.16;100863.59;5058017;28;45544;-71
2022/04/19 11:49:26;;;;;;;;;20.67;14.67;;;;;21.62;33.25;100870.44;5054075;28;45353;-73
2022/04/19 11:51:57;;;;;;;;;19.00;18.33;;;;;21.52;33.57;100847.41;5043958;28;45407;-71